createdAt,value
2019-03-05T00:02:16.038Z,91.31
2019-03-05T00:05:07.184Z,92.52
2019-03-05T00:07:58.574Z,93.79
2019-03-05T00:10:48.912Z,93.91
2019-03-05T00:13:39.031Z,94.30
2019-03-05T00:16:29.435Z,94.26
2019-03-05T00:19:19.768Z,94.19
2019-03-05T00:22:11.272Z,94.52
2019-03-05T00:25:13.832Z,94.56
2019-03-05T00:28:17.183Z,95.05
2019-03-05T00:31:25.127Z,95.44
2019-03-05T00:35:06.277Z,96.28
2019-03-05T00:38:05.427Z,96.56
2019-03-05T00:41:26.778Z,97.20
2019-03-05T00:44:34.909Z,97.88
2019-03-05T00:47:55.883Z,98.50
2019-03-05T00:51:07.855Z,99.28
2019-03-05T00:54:22.818Z,99.26
2019-03-05T00:58:05.354Z,98.96
2019-03-05T01:01:25.990Z,98.79
2019-03-05T01:04:56.575Z,98.99
2019-03-05T01:07:46.783Z,98.82
2019-03-05T01:10:37.271Z,98.38
2019-03-05T01:13:27.834Z,98.58
2019-03-05T01:16:20.387Z,98.62
2019-03-05T01:19:10.670Z,98.50
2019-03-05T01:22:02.091Z,98.70
2019-03-05T01:24:52.174Z,98.66
2019-03-05T01:27:42.423Z,98.74
2019-03-05T01:31:08.415Z,98.85
2019-03-05T01:34:23.629Z,98.80
2019-03-05T01:37:13.986Z,98.77
2019-03-05T01:40:32.586Z,99.00
2019-03-05T01:43:22.906Z,99.12
2019-03-05T01:46:13.415Z,98.79
2019-03-05T01:49:04.058Z,98.99
2019-03-05T01:51:54.295Z,99.17
2019-03-05T01:54:44.569Z,100.00
2019-03-05T01:57:34.620Z,100.00
2019-03-05T02:00:25.099Z,100.00
2019-03-05T02:03:15.569Z,100.00
2019-03-05T02:06:05.885Z,100.00
2019-03-05T02:08:56.363Z,100.00
2019-03-05T02:11:46.854Z,100.00
2019-03-05T02:14:37.433Z,100.00
2019-03-05T02:17:27.889Z,100.00
2019-03-05T02:20:25.737Z,100.00
2019-03-05T02:23:37.987Z,100.00
2019-03-05T02:26:51.281Z,100.00
2019-03-05T02:29:54.321Z,100.00
2019-03-05T02:33:33.893Z,100.00
2019-03-05T02:36:54.100Z,100.00
2019-03-05T02:40:22.717Z,100.00
2019-03-05T02:43:40.933Z,100.00
2019-03-05T02:46:47.018Z,100.00
2019-03-05T02:50:04.664Z,100.00
2019-03-05T02:53:48.334Z,100.00
2019-03-05T02:56:59.421Z,100.00
2019-03-05T02:59:50.593Z,100.00
2019-03-05T03:02:58.276Z,100.00
2019-03-05T03:06:07.690Z,100.00
2019-03-05T03:09:39.656Z,100.00
2019-03-05T03:12:31.113Z,100.00
2019-03-05T03:15:21.550Z,100.00
2019-03-05T03:18:12.772Z,100.00
2019-03-05T03:21:03.399Z,100.00
2019-03-05T03:23:53.739Z,100.00
2019-03-05T03:26:44.122Z,100.00
2019-03-05T03:29:37.128Z,100.00
2019-03-05T03:32:27.569Z,100.00
2019-03-05T03:35:17.950Z,100.00
2019-03-05T03:38:09.508Z,100.00
2019-03-05T03:41:00.735Z,100.00
2019-03-05T03:43:51.207Z,100.00
2019-03-05T03:46:41.618Z,100.00
2019-03-05T03:49:31.981Z,100.00
2019-03-05T03:52:22.335Z,100.00
2019-03-05T03:55:13.609Z,100.00
2019-03-05T03:58:04.074Z,100.00
2019-03-05T04:00:54.545Z,100.00
2019-03-05T04:03:45.101Z,100.00
2019-03-05T04:06:35.607Z,100.00
2019-03-05T04:09:26.003Z,100.00
2019-03-05T04:12:16.035Z,100.00
2019-03-05T04:15:07.548Z,100.00
2019-03-05T04:17:57.610Z,100.00
2019-03-05T04:20:51.418Z,100.00
2019-03-05T04:23:42.298Z,100.00
2019-03-05T04:26:32.596Z,100.00
2019-03-05T04:29:22.781Z,100.00
2019-03-05T04:32:13.165Z,100.00
2019-03-05T04:35:03.712Z,100.00
2019-03-05T04:37:54.196Z,100.00
2019-03-05T04:40:44.668Z,100.00
2019-03-05T04:43:35.259Z,100.00
2019-03-05T04:46:40.121Z,100.00
2019-03-05T04:49:44.041Z,100.00
2019-03-05T04:52:36.523Z,100.00
2019-03-05T04:55:29.136Z,100.00
2019-03-05T04:58:20.372Z,100.00
2019-03-05T05:01:10.725Z,100.00
2019-03-05T05:04:01.050Z,100.00
2019-03-05T05:06:52.284Z,100.00
2019-03-05T05:09:42.644Z,100.00
2019-03-05T05:12:34.011Z,100.00
2019-03-05T05:15:32.567Z,100.00
2019-03-05T05:18:22.899Z,100.00
2019-03-05T05:21:13.211Z,100.00
2019-03-05T05:24:03.628Z,100.00
2019-03-05T05:26:53.639Z,100.00
2019-03-05T05:29:43.963Z,100.00
2019-03-05T05:32:35.399Z,99.72
2019-03-05T05:35:25.879Z,97.01
2019-03-05T05:38:16.479Z,95.37
2019-03-05T05:41:07.397Z,94.67
2019-03-05T05:43:58.577Z,93.37
2019-03-05T05:46:48.854Z,91.99
2019-03-05T05:49:39.583Z,89.98
2019-03-05T05:52:30.321Z,88.80
2019-03-05T05:55:20.702Z,86.93
2019-03-05T05:58:11.066Z,83.94
2019-03-05T06:01:03.739Z,81.78
2019-03-05T06:03:54.258Z,77.04
2019-03-05T06:06:46.255Z,70.32
2019-03-05T06:09:36.651Z,63.00
2019-03-05T06:12:26.891Z,57.11
2019-03-05T06:15:17.772Z,52.86
2019-03-05T06:18:08.312Z,47.86
2019-03-05T06:20:58.945Z,45.56
2019-03-05T06:23:49.939Z,43.82
2019-03-05T06:26:40.913Z,42.74
2019-03-05T06:29:31.895Z,41.53
2019-03-05T06:32:22.844Z,39.52
2019-03-05T06:35:13.728Z,37.15
2019-03-05T06:38:04.778Z,36.50
2019-03-05T06:40:55.742Z,35.16
2019-03-05T06:43:46.348Z,34.46
2019-03-05T06:46:37.147Z,32.50
2019-03-05T06:49:27.942Z,31.28
2019-03-05T06:52:18.853Z,30.82
2019-03-05T06:55:10.854Z,30.28
2019-03-05T06:58:01.737Z,30.35
2019-03-05T07:00:52.772Z,29.28
2019-03-05T07:03:43.707Z,28.24
2019-03-05T07:06:52.136Z,32.33
2019-03-05T07:10:14.488Z,33.11
2019-03-05T07:13:20.051Z,37.76
2019-03-05T07:16:38.513Z,41.00
2019-03-05T07:19:57.272Z,39.60
2019-03-05T07:23:13.296Z,43.77
2019-03-05T07:26:04.416Z,40.56
2019-03-05T07:28:55.440Z,41.52
2019-03-05T07:31:46.398Z,38.70
2019-03-05T07:34:38.875Z,34.81
2019-03-05T07:37:29.606Z,32.39
2019-03-05T07:40:20.497Z,33.47
2019-03-05T07:43:11.595Z,34.43
2019-03-05T07:46:02.465Z,37.63
2019-03-05T07:48:53.899Z,39.98
2019-03-05T07:51:44.762Z,35.55
2019-03-05T07:54:35.769Z,35.01
2019-03-05T07:57:26.704Z,36.56
2019-03-05T08:00:19.819Z,39.99
2019-03-05T08:03:10.738Z,37.97
2019-03-05T08:06:01.832Z,36.04
2019-03-05T08:09:42.112Z,34.70
2019-03-05T08:13:25.786Z,38.02
2019-03-05T08:16:20.826Z,39.88
2019-03-05T08:19:11.823Z,35.46
2019-03-05T08:22:02.676Z,41.08
2019-03-05T08:24:53.674Z,43.68
2019-03-05T08:27:45.559Z,42.06
2019-03-05T08:30:36.598Z,43.33
2019-03-05T08:33:27.480Z,45.61
2019-03-05T08:36:18.481Z,43.97
2019-03-05T08:39:08.902Z,45.76
2019-03-05T08:41:59.203Z,55.21
2019-03-05T08:44:50.766Z,60.67
2019-03-05T08:47:41.147Z,57.81
2019-03-05T08:50:32.305Z,64.07
2019-03-05T08:53:22.677Z,59.54
2019-03-05T08:56:13.056Z,65.08
2019-03-05T08:59:03.246Z,65.17
2019-03-05T09:01:54.487Z,68.50
2019-03-05T09:04:44.947Z,70.58
2019-03-05T09:07:35.293Z,70.61
2019-03-05T09:10:26.701Z,70.86
2019-03-05T09:13:16.705Z,71.30
2019-03-05T09:16:06.971Z,66.81
2019-03-05T09:18:57.409Z,67.47
2019-03-05T09:21:49.337Z,67.87
2019-03-05T09:24:39.821Z,67.97
2019-03-05T09:27:30.482Z,66.42
2019-03-05T09:30:20.820Z,66.09
2019-03-05T09:33:14.019Z,69.31
2019-03-05T09:36:04.074Z,69.91
2019-03-05T09:38:54.323Z,71.15
2019-03-05T09:41:44.841Z,73.31
2019-03-05T09:44:35.274Z,77.74
2019-03-05T09:47:25.489Z,77.10
2019-03-05T09:50:17.078Z,80.22
2019-03-05T09:53:07.195Z,80.99
2019-03-05T09:55:57.657Z,81.12
2019-03-05T09:58:47.971Z,78.52
2019-03-05T10:01:38.136Z,75.48
2019-03-05T10:04:28.386Z,72.57
2019-03-05T10:07:19.462Z,75.21
2019-03-05T10:10:11.871Z,68.24
2019-03-05T10:13:04.299Z,67.39
2019-03-05T10:15:54.697Z,67.74
2019-03-05T10:18:45.145Z,66.80
2019-03-05T10:21:45.907Z,64.06
2019-03-05T10:24:28.616Z,62.70
2019-03-05T10:27:19.212Z,67.62
2019-03-05T10:30:24.424Z,47.81
2019-03-05T10:33:09.835Z,52.88
2019-03-05T10:35:59.982Z,50.10
2019-03-05T10:38:57.426Z,51.30
2019-03-05T10:41:43.013Z,41.03
2019-03-05T10:44:35.179Z,50.59
2019-03-05T10:47:25.554Z,52.68
2019-03-05T10:50:18.387Z,36.17
2019-03-05T10:53:08.560Z,36.17
2019-03-05T10:55:58.991Z,35.71
2019-03-05T10:58:49.847Z,33.21
2019-03-05T11:01:40.297Z,33.21
2019-03-05T11:04:30.624Z,34.18
2019-03-05T11:07:21.053Z,32.99
2019-03-05T11:10:11.825Z,34.27
2019-03-05T11:13:02.350Z,36.39
2019-03-05T11:15:54.783Z,34.57
2019-03-05T11:18:45.119Z,34.63
2019-03-05T11:21:35.621Z,35.38
2019-03-05T11:24:25.905Z,37.06
2019-03-05T11:27:16.343Z,37.32
2019-03-05T11:30:07.773Z,36.41
2019-03-05T11:32:58.176Z,38.39
2019-03-05T11:35:49.696Z,38.36
2019-03-05T11:38:40.348Z,38.99
2019-03-05T11:41:30.755Z,38.99
2019-03-05T11:44:21.176Z,40.36
2019-03-05T11:47:11.169Z,39.72
2019-03-05T11:50:01.494Z,38.84
2019-03-05T11:52:51.894Z,40.66
2019-03-05T11:55:42.503Z,42.90
2019-03-05T11:58:32.897Z,41.52
2019-03-05T12:01:33.803Z,39.94
2019-03-05T12:04:23.852Z,40.01
2019-03-05T12:07:14.185Z,42.11
2019-03-05T12:10:04.617Z,41.10
2019-03-05T12:12:55.095Z,43.50
2019-03-05T12:15:46.404Z,43.16
2019-03-05T12:18:36.888Z,41.27
2019-03-05T12:21:27.289Z,41.58
2019-03-05T12:24:20.058Z,41.96
2019-03-05T12:27:09.824Z,42.14
2019-03-05T12:30:00.439Z,40.83
2019-03-05T12:32:51.006Z,39.30
2019-03-05T12:35:41.490Z,39.87
2019-03-05T12:38:31.803Z,38.85
2019-03-05T12:41:22.109Z,39.25
2019-03-05T12:44:12.324Z,38.42
2019-03-05T12:47:02.626Z,39.69
2019-03-05T12:49:53.406Z,39.04
2019-03-05T12:52:43.950Z,39.24
2019-03-05T12:55:34.368Z,39.81
2019-03-05T12:58:24.844Z,42.91
2019-03-05T13:01:15.253Z,41.24
2019-03-05T13:04:06.339Z,41.67
2019-03-05T13:06:56.882Z,41.54
2019-03-05T13:09:47.637Z,40.66
2019-03-05T13:12:40.059Z,41.39
2019-03-05T13:15:30.458Z,40.59
2019-03-05T13:18:20.619Z,41.43
2019-03-05T13:21:11.157Z,41.27
2019-03-05T13:24:01.449Z,42.76
2019-03-05T13:26:51.799Z,43.64
2019-03-05T13:29:42.120Z,43.76
2019-03-05T13:32:32.591Z,44.76
2019-03-05T13:35:25.335Z,44.05
2019-03-05T13:38:15.560Z,43.52
2019-03-05T13:41:05.905Z,43.06
2019-03-05T13:43:56.652Z,43.35
2019-03-05T13:46:47.135Z,43.47
2019-03-05T13:50:13.203Z,43.87
2019-03-05T13:53:25.460Z,45.63
2019-03-05T13:56:59.377Z,45.69
2019-03-05T13:59:50.101Z,45.54
2019-03-05T14:03:07.987Z,43.80
2019-03-05T14:06:51.527Z,44.84
2019-03-05T14:09:40.161Z,46.00
2019-03-05T14:12:30.171Z,44.60
2019-03-05T14:15:21.197Z,43.84
2019-03-05T14:18:12.801Z,44.61
2019-03-05T14:21:03.182Z,45.90
2019-03-05T14:23:53.188Z,46.74
2019-03-05T14:26:43.704Z,47.72
2019-03-05T14:29:34.133Z,46.05
2019-03-05T14:32:24.634Z,46.70
2019-03-05T14:35:20.207Z,47.07
2019-03-05T14:38:10.423Z,50.56
2019-03-05T14:41:00.588Z,47.53
2019-03-05T14:43:50.868Z,47.13
2019-03-05T14:46:41.292Z,49.61
2019-03-05T14:49:31.734Z,50.70
2019-03-05T14:52:21.992Z,54.21
2019-03-05T14:55:12.230Z,55.29
2019-03-05T14:58:02.305Z,57.91
2019-03-05T15:00:52.983Z,58.22
2019-03-05T15:03:43.308Z,61.12
2019-03-05T15:06:33.528Z,61.39
2019-03-05T15:09:23.673Z,62.25
2019-03-05T15:12:14.143Z,62.71
2019-03-05T15:15:04.724Z,64.39
2019-03-05T15:17:55.404Z,63.14
2019-03-05T15:20:45.723Z,65.93
2019-03-05T15:23:36.078Z,66.16
2019-03-05T15:26:26.393Z,66.83
2019-03-05T15:29:16.705Z,67.37
2019-03-05T15:32:07.090Z,68.92
2019-03-05T15:34:58.364Z,70.19
2019-03-05T15:37:49.018Z,71.35
2019-03-05T15:40:40.190Z,72.18
2019-03-05T15:43:30.351Z,72.12
2019-03-05T15:46:20.700Z,71.55
2019-03-05T15:49:11.222Z,70.97
2019-03-05T15:52:01.567Z,71.36
2019-03-05T15:54:51.924Z,71.50
2019-03-05T15:57:42.310Z,72.04
2019-03-05T16:00:32.633Z,72.18
2019-03-05T16:03:23.047Z,72.24
2019-03-05T16:06:14.044Z,72.05
2019-03-05T16:09:05.827Z,71.53
2019-03-05T16:11:56.976Z,71.17
2019-03-05T16:14:47.618Z,72.33
2019-03-05T16:17:38.010Z,72.37
2019-03-05T16:20:29.773Z,73.37
2019-03-05T16:23:20.256Z,72.70
2019-03-05T16:26:10.788Z,73.01
2019-03-05T16:29:01.397Z,73.72
2019-03-05T16:32:09.154Z,74.61
2019-03-05T16:35:26.727Z,74.91
2019-03-05T16:38:46.046Z,75.20
2019-03-05T16:41:57.452Z,74.75
2019-03-05T16:45:07.251Z,74.19
2019-03-05T16:48:12.996Z,73.88
2019-03-05T16:51:26.616Z,74.86
2019-03-05T16:54:36.221Z,75.33
2019-03-05T16:57:44.258Z,75.69
2019-03-05T17:00:59.785Z,74.47
2019-03-05T17:04:06.442Z,72.32
2019-03-05T17:07:10.393Z,71.32
2019-03-05T17:10:19.594Z,71.51
2019-03-05T17:13:09.782Z,71.29
2019-03-05T17:16:00.331Z,70.39
2019-03-05T17:18:50.705Z,70.63
2019-03-05T17:21:41.260Z,70.73
2019-03-05T17:24:31.519Z,70.64
2019-03-05T17:27:22.511Z,70.74
2019-03-05T17:30:16.500Z,70.51
2019-03-05T17:33:07.044Z,69.34
2019-03-05T17:35:57.412Z,68.33
2019-03-05T17:38:49.284Z,68.51
2019-03-05T17:41:39.631Z,68.62
2019-03-05T17:44:30.247Z,68.56
2019-03-05T17:47:20.651Z,69.29
2019-03-05T17:50:11.773Z,68.22
2019-03-05T17:53:02.129Z,67.80
2019-03-05T17:55:52.629Z,68.31
2019-03-05T17:58:43.004Z,68.84
2019-03-05T18:01:33.541Z,67.66
2019-03-05T18:04:24.783Z,66.99
2019-03-05T18:07:15.151Z,67.25
2019-03-05T18:10:05.849Z,67.34
2019-03-05T18:12:56.443Z,67.05
2019-03-05T18:15:46.683Z,68.15
2019-03-05T18:18:37.454Z,68.46
2019-03-05T18:21:27.743Z,68.38
2019-03-05T18:24:18.031Z,68.31
2019-03-05T18:27:08.895Z,68.71
2019-03-05T18:29:59.131Z,68.92
2019-03-05T18:32:49.602Z,69.45
2019-03-05T18:35:39.963Z,69.47
2019-03-05T18:38:30.311Z,67.92
2019-03-05T18:41:20.642Z,68.15
2019-03-05T18:44:11.053Z,68.62
2019-03-05T18:47:01.744Z,67.22
2019-03-05T18:49:52.145Z,66.42
2019-03-05T18:52:42.817Z,66.27
2019-03-05T18:55:33.086Z,68.29
2019-03-05T18:58:23.477Z,68.47
2019-03-05T19:01:14.000Z,68.14
2019-03-05T19:04:04.393Z,67.78
2019-03-05T19:06:54.553Z,68.04
2019-03-05T19:09:44.874Z,68.66
2019-03-05T19:12:34.995Z,70.73
2019-03-05T19:15:25.662Z,72.02
2019-03-05T19:18:16.114Z,73.17
2019-03-05T19:21:06.396Z,73.77
2019-03-05T19:23:56.454Z,72.70
2019-03-05T19:26:47.045Z,71.21
2019-03-05T19:29:37.579Z,70.87
2019-03-05T19:32:28.926Z,70.43
2019-03-05T19:35:19.158Z,69.70
2019-03-05T19:38:09.236Z,69.51
2019-03-05T19:40:59.473Z,70.86
2019-03-05T19:43:50.076Z,70.83
2019-03-05T19:46:40.378Z,71.22
2019-03-05T19:49:31.067Z,71.51
2019-03-05T19:52:21.445Z,72.29
2019-03-05T19:55:12.865Z,73.08
2019-03-05T19:58:09.405Z,74.41
2019-03-05T20:01:17.952Z,76.00
2019-03-05T20:04:11.765Z,76.91
2019-03-05T20:06:59.904Z,79.27
2019-03-05T20:09:50.335Z,79.80
2019-03-05T20:12:40.731Z,80.66
2019-03-05T20:15:30.991Z,81.62
2019-03-05T20:18:22.236Z,83.75
2019-03-05T20:21:12.397Z,84.08
2019-03-05T20:24:05.499Z,83.40
2019-03-05T20:26:55.713Z,84.23
2019-03-05T20:29:45.996Z,85.63
2019-03-05T20:32:37.199Z,85.89
2019-03-05T20:35:27.641Z,86.94
2019-03-05T20:38:17.968Z,87.42
2019-03-05T20:41:09.232Z,86.87
2019-03-05T20:43:59.586Z,86.03
2019-03-05T20:46:49.839Z,85.27
2019-03-05T20:49:41.368Z,84.69
2019-03-05T20:52:32.233Z,84.48
2019-03-05T20:55:22.804Z,84.45
2019-03-05T20:58:12.954Z,85.34
2019-03-05T21:01:04.413Z,86.28
2019-03-05T21:03:54.637Z,86.67
2019-03-05T21:06:44.974Z,86.51
2019-03-05T21:09:35.649Z,86.47
2019-03-05T21:12:25.819Z,86.81
2019-03-05T21:15:16.318Z,86.29
2019-03-05T21:18:06.732Z,85.86
2019-03-05T21:20:57.269Z,86.51
2019-03-05T21:23:47.799Z,87.24
2019-03-05T21:26:38.113Z,87.75
2019-03-05T21:29:28.425Z,87.54
2019-03-05T21:32:18.802Z,87.59
2019-03-05T21:35:09.940Z,88.43
2019-03-05T21:38:00.419Z,89.56
2019-03-05T21:40:50.838Z,90.95
2019-03-05T21:43:41.350Z,92.15
2019-03-05T21:46:31.649Z,93.11
2019-03-05T21:49:22.068Z,92.09
2019-03-05T21:52:12.430Z,93.35
2019-03-05T21:55:02.981Z,93.43
2019-03-05T21:57:53.511Z,94.36
2019-03-05T22:00:43.691Z,95.25
2019-03-05T22:03:33.815Z,93.92
2019-03-05T22:06:24.506Z,94.61
2019-03-05T22:09:14.858Z,96.26
2019-03-05T22:12:05.323Z,98.96
2019-03-05T22:14:55.429Z,99.18
2019-03-05T22:17:45.852Z,100.00
2019-03-05T22:20:36.282Z,100.00
2019-03-05T22:23:26.874Z,100.00
2019-03-05T22:26:17.409Z,100.00
2019-03-05T22:29:07.734Z,100.00
2019-03-05T22:31:58.031Z,100.00
2019-03-05T22:34:48.375Z,100.00
2019-03-05T22:37:38.715Z,100.00
2019-03-05T22:40:29.219Z,100.00
2019-03-05T22:43:19.341Z,100.00
2019-03-05T22:46:10.384Z,100.00
2019-03-05T22:49:00.503Z,100.00
2019-03-05T22:51:51.237Z,100.00
2019-03-05T22:54:41.667Z,100.00
2019-03-05T22:57:32.034Z,100.00
2019-03-05T23:01:00.939Z,100.00
2019-03-05T23:04:00.337Z,100.00
2019-03-05T23:06:50.422Z,100.00
2019-03-05T23:09:40.930Z,100.00
2019-03-05T23:12:31.249Z,100.00
2019-03-05T23:15:21.614Z,98.98
2019-03-05T23:18:12.025Z,97.18
2019-03-05T23:21:02.622Z,97.26
2019-03-05T23:23:52.946Z,95.50
2019-03-05T23:26:45.395Z,94.12
2019-03-05T23:29:43.554Z,93.08
2019-03-05T23:32:33.899Z,93.38
2019-03-05T23:35:24.180Z,93.72
2019-03-05T23:38:14.570Z,93.92
2019-03-05T23:41:04.692Z,93.62
2019-03-05T23:43:55.179Z,93.67
2019-03-05T23:46:45.812Z,94.16
2019-03-05T23:49:36.033Z,93.67
2019-03-05T23:52:26.628Z,93.84
2019-03-05T23:55:17.285Z,93.77
2019-03-05T23:58:07.575Z,93.05
